Time;durP1;ratioP1;P1;durP2;ratioP2;P2;SDS_P1;SDS_P2;PMS_P1;PMS_P2;Temp;Humidity;BMP_temperature;BMP_pressure;BME280_temperature;BME280_humidity;BME280_pressure;Samples;Min_cycle;Max_cycle;Signal;HPM_P1;HPM_P2
2023/01/11 00:01:28;;;;;;;0.00;0.00;;;;;;;8.95;51.39;94519.13;4991165;28;20225;-59
2023/01/11 00:03:54;;;;;;;0.00;0.00;;;;;;;8.90;50.80;94504.22;4992022;28;20206;-59
2023/01/11 00:06:21;;;;;;;0.00;0.00;;;;;;;8.81;51.35;94510.94;4991416;28;20688;-60
2023/01/11 00:08:48;;;;;;;0.00;0.00;;;;;;;8.92;50.57;94519.63;4992189;28;20676;-59
2023/01/11 00:11:15;;;;;;;0.00;0.00;;;;;;;8.95;50.64;94519.91;4991506;28;20234;-60
2023/01/11 00:13:44;;;;;;;0.00;0.00;;;;;;;8.95;50.84;94519.13;4991939;28;20214;-59
2023/01/11 00:16:11;;;;;;;0.05;0.05;;;;;;;9.07;50.22;94523.09;4991485;28;20243;-59
2023/01/11 00:18:39;;;;;;;0.00;0.00;;;;;;;8.96;50.91;94528.50;4991637;28;20225;-60
2023/01/11 00:21:07;;;;;;;0.10;0.10;;;;;;;8.71;51.24;94526.56;4991387;28;20206;-60
2023/01/11 00:23:36;;;;;;;0.30;0.30;;;;;;;8.92;50.72;94530.84;4991984;28;20642;-59
2023/01/11 00:26:05;;;;;;;0.80;0.55;;;;;;;8.57;51.58;94522.03;4991268;28;20316;-59
2023/01/11 00:28:31;;;;;;;0.00;0.00;;;;;;;8.39;52.22;94540.69;4991908;28;20245;-58
2023/01/11 00:30:58;;;;;;;0.00;0.00;;;;;;;8.50;51.79;94537.13;4990726;28;20245;-59
2023/01/11 00:33:25;;;;;;;0.00;0.00;;;;;;;8.35;52.35;94539.63;4991826;28;20305;-59
2023/01/11 00:35:53;;;;;;;0.10;0.10;;;;;;;8.65;51.52;94540.63;4991145;28;20247;-60
2023/01/11 00:49:28;;;;;;;0.47;0.25;;;;;;;8.54;52.20;94532.97;4990593;28;20199;-60
2023/01/11 00:51:54;;;;;;;0.22;0.10;;;;;;;8.27;51.68;94550.50;4991210;28;20301;-60
2023/01/11 00:54:21;;;;;;;0.00;0.00;;;;;;;8.32;51.53;94546.13;4990516;28;20257;-59
2023/01/11 00:56:48;;;;;;;1.13;0.65;;;;;;;8.34;51.68;94551.88;4990824;28;20198;-59
2023/01/11 00:59:15;;;;;;;0.00;0.00;;;;;;;8.61;51.56;94554.44;4991367;28;20233;-60
2023/01/11 01:01:42;;;;;;;0.20;0.20;;;;;;;7.78;52.55;94555.00;4990204;28;20759;-59
2023/01/11 01:04:08;;;;;;;0.20;0.20;;;;;;;7.92;52.36;94564.00;4990899;28;20206;-59
2023/01/11 01:06:35;;;;;;;1.13;1.05;;;;;;;8.24;52.70;94538.75;4990195;28;20736;-60
2023/01/11 01:09:02;;;;;;;0.10;0.10;;;;;;;8.61;51.74;94559.66;4990614;28;20217;-60
2023/01/11 01:11:29;;;;;;;0.00;0.00;;;;;;;8.72;51.16;94549.00;4990367;28;20365;-60
2023/01/11 01:16:41;;;;;;;0.05;0.05;;;;;;;8.73;51.07;94555.03;4990072;28;20708;-60
2023/01/11 01:19:08;;;;;;;0.63;0.63;;;;;;;8.61;51.85;94551.81;4990325;28;20191;-61
2023/01/11 01:21:36;;;;;;;0.13;0.13;;;;;;;8.72;51.25;94556.84;4989846;28;20198;-60
2023/01/11 01:24:03;;;;;;;0.95;0.95;;;;;;;8.73;51.13;94560.25;4990957;28;20194;-59
2023/01/11 01:26:30;;;;;;;0.03;0.03;;;;;;;8.48;51.16;94560.09;4990190;28;20689;-60
2023/01/11 01:28:57;;;;;;;0.00;0.00;;;;;;;8.44;51.36;94554.59;4989233;28;20572;-60
2023/01/11 01:31:24;;;;;;;0.00;0.00;;;;;;;8.69;51.38;94565.19;4989262;28;20308;-61
2023/01/11 01:33:51;;;;;;;0.00;0.00;;;;;;;8.64;51.13;94559.16;4990601;28;20207;-59
2023/01/11 01:36:17;;;;;;;0.20;0.20;;;;;;;8.59;50.89;94561.75;4989845;28;20221;-59
2023/01/11 01:38:45;;;;;;;2.50;1.17;;;;;;;8.61;50.99;94565.66;4990339;28;20493;-59
2023/01/11 01:41:12;;;;;;;0.00;0.00;;;;;;;8.57;51.75;94563.81;4989355;28;20289;-60
2023/01/11 01:43:57;;;;;;;0.43;0.43;;;;;;;8.35;51.53;94570.94;4990602;28;20792;-60
2023/01/11 01:46:29;;;;;;;0.28;0.28;;;;;;;8.09;52.39;94581.16;4989450;28;20198;-60
2023/01/11 01:49:02;;;;;;;0.08;0.08;;;;;;;8.15;52.38;94576.75;4990199;28;20203;-60
2023/01/11 01:51:55;;;;;;;1.08;0.98;;;;;;;8.64;50.82;94570.41;4989475;28;20242;-59
2023/01/11 01:54:26;;;;;;;0.00;0.00;;;;;;;7.52;53.32;94587.06;4989899;28;20293;-59
2023/01/11 01:57:02;;;;;;;0.35;0.35;;;;;;;8.25;51.88;94563.81;4990261;28;20210;-59
2023/01/11 01:59:31;;;;;;;0.00;0.00;;;;;;;8.37;51.18;94574.91;4990236;28;20300;-60
2023/01/11 02:01:59;;;;;;;0.32;0.32;;;;;;;8.22;52.18;94566.91;4989966;28;20261;-60
2023/01/11 02:04:41;;;;;;;0.05;0.05;;;;;;;8.34;50.93;94564.16;4989293;28;20222;-60
2023/01/11 02:07:14;;;;;;;0.55;0.55;;;;;;;7.02;53.97;94585.41;4989844;28;20524;-60
2023/01/11 02:09:54;;;;;;;0.00;0.00;;;;;;;6.80;54.60;94566.34;4989550;28;20208;-60
2023/01/11 02:12:24;;;;;;;0.63;0.47;;;;;;;6.74;55.13;94575.13;4989680;28;20237;-60
2023/01/11 02:14:53;;;;;;;0.00;0.00;;;;;;;7.50;54.08;94591.75;4989820;28;20670;-60
2023/01/11 02:17:20;;;;;;;0.00;0.00;;;;;;;7.94;53.20;94598.44;4989393;28;20209;-60
2023/01/11 02:20:09;;;;;;;0.30;0.30;;;;;;;8.20;51.91;94603.69;4989543;28;20309;-60
2023/01/11 02:22:53;;;;;;;1.58;1.00;;;;;;;8.23;51.75;94599.78;4989944;28;20190;-59
2023/01/11 02:25:43;;;;;;;2.22;1.33;;;;;;;8.37;52.05;94606.22;4988855;28;20211;-59
2023/01/11 02:28:27;;;;;;;0.00;0.00;;;;;;;8.19;52.15;94619.59;4989197;28;20202;-59
2023/01/11 02:31:19;;;;;;;0.10;0.10;;;;;;;7.79;53.55;94629.63;4989077;28;20242;-59
2023/01/11 02:34:12;;;;;;;0.20;0.20;;;;;;;8.18;52.25;94628.44;4989034;28;20293;-59
2023/01/11 02:37:17;;;;;;;0.00;0.00;;;;;;;8.24;52.46;94630.09;4986842;28;20205;-60
2023/01/11 02:39:58;;;;;;;0.00;0.00;;;;;;;8.21;51.79;94627.97;4985221;28;20258;-59
2023/01/11 02:46:06;;;;;;;0.00;0.00;;;;;;;8.45;51.83;94638.94;4988959;28;20202;-59
2023/01/11 02:48:45;;;;;;;0.52;0.22;;;;;;;8.24;52.40;94643.16;4979514;28;20240;-61
2023/01/11 02:51:31;;;;;;;0.05;0.05;;;;;;;8.34;51.19;94643.25;4988171;28;20257;-60
2023/01/11 02:54:03;;;;;;;0.00;0.00;;;;;;;8.21;51.43;94641.03;4989280;28;20203;-59
2023/01/11 02:56:35;;;;;;;0.00;0.00;;;;;;;8.33;51.38;94640.88;4987715;28;20257;-60
2023/01/11 02:59:04;;;;;;;0.00;0.00;;;;;;;8.51;51.33;94646.53;4985688;28;20208;-60
2023/01/11 03:01:30;;;;;;;2.38;0.75;;;;;;;7.80;52.52;94649.44;4988807;28;20277;-60
2023/01/11 03:03:57;;;;;;;0.00;0.00;;;;;;;8.32;51.32;94649.75;4988733;28;20230;-61
2023/01/11 03:06:42;;;;;;;0.00;0.00;;;;;;;8.45;51.29;94639.69;4988505;28;20286;-60
2023/01/11 03:09:22;;;;;;;0.10;0.10;;;;;;;8.28;51.56;94648.66;4993159;28;20202;-60
2023/01/11 03:15:11;;;;;;;0.00;0.00;;;;;;;8.33;51.98;94652.13;5000031;28;20206;-59
2023/01/11 03:17:57;;;;;;;0.00;0.00;;;;;;;7.74;53.36;94647.78;4982146;28;20229;-61
2023/01/11 03:20:37;;;;;;;0.00;0.00;;;;;;;8.30;51.94;94636.97;4992176;28;20233;-60
2023/01/11 03:23:18;;;;;;;0.40;0.40;;;;;;;8.17;52.66;94642.53;4992999;28;20276;-60
2023/01/11 03:26:20;;;;;;;0.00;0.00;;;;;;;8.19;51.64;94635.25;4992901;28;20230;-60
2023/01/11 03:29:09;;;;;;;0.00;0.00;;;;;;;7.85;53.01;94633.84;4981588;28;20264;-60
2023/01/11 03:31:52;;;;;;;0.00;0.00;;;;;;;8.20;52.41;94634.22;4992050;28;20277;-60
2023/01/11 03:34:29;;;;;;;0.00;0.00;;;;;;;7.94;52.91;94632.38;4992336;28;20210;-60
2023/01/11 03:37:02;;;;;;;0.00;0.00;;;;;;;7.57;54.41;94640.03;4992472;28;20638;-59
2023/01/11 03:39:38;;;;;;;0.20;0.20;;;;;;;7.94;53.23;94637.59;4991808;28;20206;-60
2023/01/11 03:42:10;;;;;;;0.82;0.60;;;;;;;7.76;53.97;94648.34;4992502;28;20197;-60
2023/01/11 03:44:45;;;;;;;0.00;0.00;;;;;;;7.49;53.84;94648.28;4992450;28;20218;-60
2023/01/11 03:47:15;;;;;;;0.05;0.05;;;;;;;7.82;53.66;94649.97;4992363;28;20209;-59
2023/01/11 03:49:50;;;;;;;0.00;0.00;;;;;;;7.66;54.11;94651.63;4991721;28;20256;-62
2023/01/11 03:52:24;;;;;;;0.35;0.35;;;;;;;7.61;54.44;94653.41;4992057;28;20229;-59
2023/01/11 03:54:54;;;;;;;0.00;0.00;;;;;;;7.97;53.75;94657.97;4992030;28;20218;-59
2023/01/11 03:57:24;;;;;;;0.00;0.00;;;;;;;8.15;52.84;94658.44;4991943;28;20301;-59
2023/01/11 03:59:52;;;;;;;1.30;0.52;;;;;;;7.93;53.71;94659.50;4991402;28;20503;-59
2023/01/11 04:02:24;;;;;;;0.00;0.00;;;;;;;8.30;52.96;94657.06;4991363;28;20298;-60
2023/01/11 04:04:51;;;;;;;0.00;0.00;;;;;;;7.99;53.20;94655.94;4990698;28;20305;-59
2023/01/11 04:07:18;;;;;;;0.10;0.10;;;;;;;8.37;52.98;94653.22;4991278;28;20195;-60
2023/01/11 04:09:45;;;;;;;0.98;0.65;;;;;;;8.18;52.85;94654.53;4991538;28;20206;-60
2023/01/11 04:12:12;;;;;;;0.32;0.30;;;;;;;7.75;54.80;94662.44;4991019;28;20222;-59
2023/01/11 04:14:38;;;;;;;0.00;0.00;;;;;;;7.93;53.88;94675.16;4991638;28;20658;-59
2023/01/11 04:17:05;;;;;;;0.00;0.00;;;;;;;8.07;53.84;94664.09;4991467;28;20789;-59
2023/01/11 04:19:32;;;;;;;0.00;0.00;;;;;;;8.09;52.82;94653.41;4989628;28;20641;-60
2023/01/11 04:21:59;;;;;;;0.00;0.00;;;;;;;8.14;53.29;94669.91;4991655;28;20278;-59
2023/01/11 04:24:26;;;;;;;2.95;1.55;;;;;;;8.22;53.17;94668.69;4991691;28;20202;-59
2023/01/11 04:26:52;;;;;;;0.55;0.55;;;;;;;7.75;54.54;94685.91;4991468;28;20278;-59
2023/01/11 04:29:19;;;;;;;0.75;0.65;;;;;;;7.84;54.08;94681.84;4991197;28;20198;-60
2023/01/11 04:31:46;;;;;;;0.00;0.00;;;;;;;7.65;54.47;94685.75;4990754;28;20661;-60
2023/01/11 04:34:13;;;;;;;0.08;0.08;;;;;;;8.16;53.19;94693.16;4991418;28;20216;-59
2023/01/11 04:36:40;;;;;;;0.85;0.75;;;;;;;8.02;53.77;94695.34;4989964;28;20191;-59
2023/01/11 04:39:09;;;;;;;0.13;0.13;;;;;;;7.97;53.14;94697.88;4991429;28;20222;-60
2023/01/11 04:44:23;;;;;;;1.42;0.88;;;;;;;7.54;54.18;94699.69;4990663;28;20669;-59
2023/01/11 04:46:50;;;;;;;0.20;0.20;;;;;;;7.03;55.72;94706.00;4991904;28;20566;-60
2023/01/11 04:49:17;;;;;;;0.00;0.00;;;;;;;7.59;54.56;94712.81;4991327;28;20201;-60
2023/01/11 04:51:43;;;;;;;0.15;0.15;;;;;;;8.11;52.99;94700.94;4991487;28;20222;-58
2023/01/11 04:54:10;;;;;;;0.00;0.00;;;;;;;7.28;54.59;94695.19;4991307;28;20226;-59
2023/01/11 04:56:37;;;;;;;0.03;0.03;;;;;;;7.87;53.39;94710.03;4990898;28;20630;-60
2023/01/11 04:59:04;;;;;;;1.48;1.38;;;;;;;7.75;53.97;94717.19;4990391;28;20199;-60
2023/01/11 05:01:31;;;;;;;0.00;0.00;;;;;;;7.79;53.56;94718.28;4987914;28;20187;-61
2023/01/11 05:03:58;;;;;;;0.93;0.60;;;;;;;7.81;53.83;94716.22;4986856;28;20202;-59
2023/01/11 05:06:25;;;;;;;0.10;0.10;;;;;;;8.00;53.46;94714.88;4990636;28;20202;-61
2023/01/11 05:08:52;;;;;;;0.70;0.35;;;;;;;8.11;52.82;94724.41;4990937;28;20364;-61
2023/01/11 05:11:18;;;;;;;0.00;0.00;;;;;;;8.52;52.27;94717.84;4990797;28;20218;-60
2023/01/11 05:13:45;;;;;;;0.00;0.00;;;;;;;8.51;52.52;94722.25;4990855;28;20222;-60
2023/01/11 05:16:22;;;;;;;0.00;0.00;;;;;;;8.33;52.61;94734.84;4990466;28;20286;-59
2023/01/11 05:18:55;;;;;;;0.00;0.00;;;;;;;8.42;52.12;94722.94;4990928;28;20758;-61
2023/01/11 05:21:30;;;;;;;0.00;0.00;;;;;;;7.86;52.71;94708.47;4990160;28;20690;-60
2023/01/11 05:23:59;;;;;;;0.65;0.57;;;;;;;8.02;52.83;94723.25;4979153;28;20256;-60
2023/01/11 05:26:29;;;;;;;0.00;0.00;;;;;;;8.18;52.91;94727.63;4990055;28;20728;-61
2023/01/11 05:28:59;;;;;;;0.00;0.00;;;;;;;8.20;52.84;94731.56;4990443;28;20285;-61
2023/01/11 05:31:26;;;;;;;0.00;0.00;;;;;;;8.01;53.32;94739.97;4989597;28;20222;-60
2023/01/11 05:33:56;;;;;;;0.00;0.00;;;;;;;8.48;52.04;94733.22;4990408;28;20214;-60
2023/01/11 05:36:24;;;;;;;0.00;0.00;;;;;;;8.05;52.66;94743.63;4989311;28;20294;-61
2023/01/11 05:38:53;;;;;;;0.10;0.10;;;;;;;8.30;52.46;94740.56;4989429;28;20302;-61
2023/01/11 05:41:22;;;;;;;0.17;0.17;;;;;;;8.13;52.88;94745.84;4988953;28;20292;-61
2023/01/11 05:46:37;;;;;;;0.22;0.22;;;;;;;8.78;51.67;94754.38;4988959;28;20293;-60
2023/01/11 05:49:05;;;;;;;0.22;0.22;;;;;;;8.80;51.30;94760.16;4989979;28;20280;-60
2023/01/11 05:51:32;;;;;;;0.00;0.00;;;;;;;8.96;51.28;94756.63;4989798;28;20301;-60
2023/01/11 05:54:00;;;;;;;1.58;1.48;;;;;;;8.96;51.28;94759.25;4989675;28;20321;-57
2023/01/11 05:56:28;;;;;;;1.80;1.05;;;;;;;8.90;51.02;94762.88;4988384;28;20741;-59
2023/01/11 05:58:55;;;;;;;0.30;0.30;;;;;;;8.53;52.41;94756.75;4988952;28;20199;-57
2023/01/11 06:01:23;;;;;;;0.00;0.00;;;;;;;8.43;52.54;94761.84;4989138;28;20230;-59
2023/01/11 06:03:51;;;;;;;0.17;0.17;;;;;;;8.63;51.24;94762.06;4989274;28;20210;-61
2023/01/11 06:06:19;;;;;;;0.10;0.10;;;;;;;8.65;52.26;94765.22;4988519;28;20222;-61
2023/01/11 06:08:46;;;;;;;0.00;0.00;;;;;;;8.77;51.30;94768.50;4989119;28;20198;-60
2023/01/11 06:11:13;;;;;;;0.00;0.00;;;;;;;8.91;50.83;94774.91;4989480;28;20191;-59
2023/01/11 06:13:41;;;;;;;0.00;0.00;;;;;;;8.71;50.61;94779.91;4989766;28;20325;-61
2023/01/11 06:16:17;;;;;;;0.00;0.00;;;;;;;8.21;52.64;94779.34;4988953;28;20647;-61
2023/01/11 06:18:46;;;;;;;0.98;0.98;;;;;;;8.82;51.20;94789.44;4989589;28;20202;-60
2023/01/11 06:21:14;;;;;;;0.43;0.43;;;;;;;8.78;50.83;94793.56;4989058;28;20218;-57
2023/01/11 06:23:44;;;;;;;0.28;0.28;;;;;;;8.65;51.01;94798.41;4988960;28;20202;-58
2023/01/11 06:26:14;;;;;;;4.10;0.47;;;;;;;8.88;50.47;94805.97;4989195;28;20201;-61
2023/01/11 06:28:42;;;;;;;0.00;0.00;;;;;;;8.59;50.50;94792.34;4989542;28;20277;-60
2023/01/11 06:31:08;;;;;;;0.00;0.00;;;;;;;8.89;50.12;94813.53;4987661;28;20241;-60
2023/01/11 06:33:36;;;;;;;0.32;0.32;;;;;;;9.34;49.78;94815.00;4986802;28;20226;-59
2023/01/11 06:36:08;;;;;;;0.00;0.00;;;;;;;9.71;49.15;94815.78;4985952;28;20317;-60
2023/01/11 06:38:36;;;;;;;0.10;0.10;;;;;;;9.78;49.26;94821.63;4987032;28;20226;-59
2023/01/11 06:41:09;;;;;;;0.40;0.40;;;;;;;8.66;50.88;94819.06;4986165;28;20595;-60
2023/01/11 06:43:39;;;;;;;0.00;0.00;;;;;;;8.64;51.21;94818.50;4986707;28;20209;-59
2023/01/11 06:46:14;;;;;;;0.15;0.15;;;;;;;9.45;49.98;94821.91;4987200;28;20312;-57
2023/01/11 06:48:42;;;;;;;0.30;0.30;;;;;;;9.84;49.59;94820.59;4989476;28;20216;-59
2023/01/11 06:51:10;;;;;;;1.38;1.27;;;;;;;10.00;49.39;94823.06;4988793;28;20207;-60
2023/01/11 06:53:38;;;;;;;2.45;1.73;;;;;;;10.16;49.24;94816.88;4989668;28;20225;-60
2023/01/11 06:56:05;;;;;;;0.90;0.90;;;;;;;10.30;49.61;94825.09;4988598;28;20644;-58
2023/01/11 06:58:32;;;;;;;1.48;1.33;;;;;;;10.32;48.82;94820.38;4989730;28;20196;-60
2023/01/11 07:00:58;;;;;;;4.40;2.15;;;;;;;9.90;49.66;94830.84;4988801;28;20214;-60
2023/01/11 07:03:26;;;;;;;1.10;1.05;;;;;;;9.56;50.96;94834.00;4989427;28;20574;-59
2023/01/11 07:05:55;;;;;;;1.27;1.17;;;;;;;9.93;50.22;94834.78;4988930;28;20226;-59
2023/01/11 07:08:25;;;;;;;0.65;0.65;;;;;;;10.16;49.81;94847.53;4989343;28;20281;-60
2023/01/11 07:10:53;;;;;;;0.38;0.38;;;;;;;9.75;49.87;94849.06;4988422;28;20198;-59
2023/01/11 07:13:20;;;;;;;1.13;1.02;;;;;;;9.99;49.72;94845.03;4989066;28;20241;-59
2023/01/11 07:15:49;;;;;;;2.38;0.75;;;;;;;10.14;49.63;94860.09;4976239;28;20221;-60
2023/01/11 07:18:17;;;;;;;0.10;0.10;;;;;;;10.23;49.68;94855.94;4988917;28;20210;-60
2023/01/11 07:20:44;;;;;;;1.15;1.05;;;;;;;9.89;50.52;94862.53;4988985;28;20528;-61
2023/01/11 07:23:11;;;;;;;7.70;1.05;;;;;;;9.82;50.38;94870.56;4989043;28;20226;-59
2023/01/11 07:25:38;;;;;;;1.00;1.00;;;;;;;9.56;50.78;94865.41;4988257;28;20664;-59
2023/01/11 07:28:07;;;;;;;5.30;0.60;;;;;;;9.48;51.35;94863.22;4989553;28;20257;-58
2023/01/11 07:30:36;;;;;;;1.58;1.13;;;;;;;9.77;50.34;94873.16;4988579;28;20288;-59
2023/01/11 07:33:22;;;;;;;1.92;1.83;;;;;;;10.02;50.71;94870.72;4989047;28;20215;-59
2023/01/11 07:35:49;;;;;;;0.57;0.57;;;;;;;10.39;50.08;94865.47;4988380;28;20624;-60
2023/01/11 07:38:16;;;;;;;0.65;0.65;;;;;;;10.35;49.89;94869.63;4989083;28;20636;-60
2023/01/11 07:40:42;;;;;;;3.58;1.80;;;;;;;10.20;50.03;94866.91;4988612;28;20194;-60
2023/01/11 07:43:17;;;;;;;1.25;1.17;;;;;;;10.20;50.14;94878.19;4989253;28;20203;-58
2023/01/11 07:45:49;;;;;;;1.55;1.45;;;;;;;10.12;49.91;94880.50;4988409;28;20213;-59
2023/01/11 07:48:25;;;;;;;0.45;0.45;;;;;;;9.47;51.97;94888.59;4977050;28;20294;-59
2023/01/11 07:50:52;;;;;;;0.90;0.90;;;;;;;10.07;50.96;94883.06;4987833;28;20591;-59
2023/01/11 07:53:20;;;;;;;1.38;1.27;;;;;;;10.33;49.86;94882.19;4989564;28;20293;-59
2023/01/11 07:55:47;;;;;;;3.30;2.30;;;;;;;10.40;50.78;94887.22;4991865;28;20191;-59
2023/01/11 07:58:14;;;;;;;0.68;0.50;;;;;;;10.61;49.63;94892.28;4992431;28;20298;-60
2023/01/11 08:00:41;;;;;;;0.20;0.20;;;;;;;10.24;50.22;94899.41;4991393;28;20286;-60
2023/01/11 08:03:09;;;;;;;0.28;0.28;;;;;;;10.18;49.94;94900.44;4992654;28;20681;-58
2023/01/11 08:05:36;;;;;;;0.55;0.55;;;;;;;10.06;50.42;94910.25;4991791;28;20205;-59
2023/01/11 08:08:03;;;;;;;0.90;0.85;;;;;;;10.44;49.91;94914.47;4992410;28;20707;-58
2023/01/11 08:10:31;;;;;;;0.10;0.10;;;;;;;10.22;50.80;94917.19;4991304;28;20233;-60
2023/01/11 08:15:43;;;;;;;0.73;0.73;;;;;;;10.18;48.48;94906.44;4991501;28;20195;-59
2023/01/11 08:18:11;;;;;;;3.03;1.98;;;;;;;10.18;50.20;94929.25;4992040;28;20257;-59
2023/01/11 08:20:39;;;;;;;4.05;2.05;;;;;;;9.94;50.41;94920.13;4978485;28;20194;-59
2023/01/11 08:23:08;;;;;;;0.35;0.30;;;;;;;10.24;50.27;94946.53;4991496;28;20202;-61
2023/01/11 08:25:34;;;;;;;1.08;0.63;;;;;;;10.19;50.12;94949.13;4991465;28;20222;-59
2023/01/11 08:28:04;;;;;;;0.45;0.45;;;;;;;9.91;50.59;94952.81;4991704;28;20261;-59
2023/01/11 08:30:31;;;;;;;0.68;0.68;;;;;;;10.17;49.44;94952.00;4990889;28;20278;-59
2023/01/11 08:33:00;;;;;;;2.03;0.63;;;;;;;10.00;50.32;94955.75;4991497;28;20198;-59
2023/01/11 08:35:27;;;;;;;8.13;2.05;;;;;;;10.45;49.64;94956.13;4991389;28;20195;-60
2023/01/11 08:37:54;;;;;;;3.00;2.72;;;;;;;10.22;49.31;94953.88;4991015;28;20194;-60
2023/01/11 08:40:20;;;;;;;0.00;0.00;;;;;;;10.36;48.33;94970.75;4991452;28;20671;-59
2023/01/11 08:42:56;;;;;;;0.30;0.30;;;;;;;10.28;47.39;94971.19;4991008;28;20199;-60
2023/01/11 08:45:24;;;;;;;0.73;0.65;;;;;;;10.28;47.44;94958.09;4990954;28;20265;-59
2023/01/11 08:47:51;;;;;;;0.00;0.00;;;;;;;9.87;48.24;94966.66;4991205;28;20202;-59
2023/01/11 08:50:19;;;;;;;0.00;0.00;;;;;;;9.90;47.39;94971.38;4990645;28;20248;-60
2023/01/11 08:52:49;;;;;;;0.00;0.00;;;;;;;10.09;45.65;94968.16;4991479;28;20241;-60
2023/01/11 08:55:17;;;;;;;0.10;0.10;;;;;;;10.07;46.21;94972.06;4990875;28;20211;-58
2023/01/11 08:57:44;;;;;;;0.60;0.60;;;;;;;10.03;47.24;94977.00;4991706;28;20253;-60
2023/01/11 09:00:12;;;;;;;0.30;0.30;;;;;;;10.25;46.86;94984.81;4991163;28;20257;-59
2023/01/11 09:02:39;;;;;;;0.00;0.00;;;;;;;10.27;47.90;94981.94;4991045;28;20213;-60
2023/01/11 09:05:06;;;;;;;0.00;0.00;;;;;;;9.70;48.15;94977.22;4990059;28;20214;-58
2023/01/11 09:07:33;;;;;;;0.30;0.13;;;;;;;9.50;48.41;94984.88;4991034;28;20202;-59
2023/01/11 09:10:00;;;;;;;0.00;0.00;;;;;;;9.85;46.52;94984.44;4990972;28;20229;-60
2023/01/11 09:12:27;;;;;;;0.65;0.45;;;;;;;10.06;47.03;94986.19;4990922;28;20240;-60
2023/01/11 09:14:54;;;;;;;0.10;0.10;;;;;;;9.82;46.08;94984.91;4990897;28;20226;-59
2023/01/11 09:17:21;;;;;;;0.28;0.28;;;;;;;10.19;46.02;94978.75;4978388;28;20198;-60
2023/01/11 09:19:48;;;;;;;0.57;0.43;;;;;;;9.78;46.64;94983.84;4990185;28;20198;-60
2023/01/11 09:22:15;;;;;;;0.85;0.85;;;;;;;9.69;46.68;94987.97;4991134;28;20230;-59
2023/01/11 09:24:41;;;;;;;0.75;0.68;;;;;;;9.80;45.98;94993.00;4975932;28;20850;-59
2023/01/11 09:27:10;;;;;;;1.08;0.98;;;;;;;9.81;46.12;94989.38;4991274;28;20187;-58
2023/01/11 09:29:37;;;;;;;0.00;0.00;;;;;;;9.96;45.89;94981.63;4990034;28;20234;-59
2023/01/11 09:32:04;;;;;;;0.00;0.00;;;;;;;10.04;45.59;94978.56;4990538;28;20222;-59
2023/01/11 09:34:32;;;;;;;0.28;0.28;;;;;;;10.04;45.43;94977.78;4989947;28;20288;-59
2023/01/11 09:37:01;;;;;;;0.00;0.00;;;;;;;9.98;46.44;94982.19;4990088;28;20607;-59
2023/01/11 09:39:28;;;;;;;0.00;0.00;;;;;;;10.24;46.74;94983.22;4989711;28;20202;-60
2023/01/11 09:42:20;;;;;;;0.15;0.15;;;;;;;10.43;45.91;94986.22;4990611;28;20202;-60
2023/01/11 09:44:53;;;;;;;0.00;0.00;;;;;;;10.39;45.25;94972.84;4990187;28;20195;-60
2023/01/11 09:47:40;;;;;;;0.13;0.13;;;;;;;9.93;45.60;94976.13;4990321;28;20242;-57
2023/01/11 09:50:16;;;;;;;0.70;0.68;;;;;;;10.06;46.00;94973.09;4990015;28;20642;-59
2023/01/11 09:52:46;;;;;;;1.90;0.85;;;;;;;10.00;46.27;94981.94;4989914;28;20630;-60
2023/01/11 09:55:20;;;;;;;0.30;0.30;;;;;;;10.00;46.86;94981.94;4990119;28;20223;-60
2023/01/11 09:58:10;;;;;;;0.00;0.00;;;;;;;10.30;45.52;94979.59;4990121;28;20198;-59
2023/01/11 10:01:02;;;;;;;0.00;0.00;;;;;;;10.77;44.44;94988.28;4989568;28;20222;-59
2023/01/11 10:03:38;;;;;;;0.52;0.52;;;;;;;10.23;45.16;94986.88;4990382;28;20220;-59
2023/01/11 10:06:18;;;;;;;0.00;0.00;;;;;;;10.30;44.29;94992.69;4989256;28;20198;-59
2023/01/11 10:08:48;;;;;;;0.00;0.00;;;;;;;10.06;44.23;94994.03;4989946;28;20202;-60
2023/01/11 10:11:44;;;;;;;0.00;0.00;;;;;;;10.52;43.82;94988.13;4989633;28;20245;-60
2023/01/11 10:14:54;;;;;;;0.00;0.00;;;;;;;9.82;44.07;94977.84;4979335;28;20226;-60
2023/01/11 10:18:12;;;;;;;0.00;0.00;;;;;;;10.62;43.80;94990.03;4979258;28;20199;-59
2023/01/11 10:21:15;;;;;;;0.00;0.00;;;;;;;10.36;45.18;94996.13;4979691;28;20285;-60
2023/01/11 10:23:52;;;;;;;0.00;0.00;;;;;;;10.48;43.43;94983.63;4989852;28;20572;-62
2023/01/11 10:26:28;;;;;;;0.00;0.00;;;;;;;10.61;43.57;94978.75;4988979;28;20206;-60
2023/01/11 10:29:52;;;;;;;0.43;0.40;;;;;;;10.06;44.21;94988.78;4989613;28;20554;-59
2023/01/11 10:32:12;;;;;;;0.05;0.03;;;;;;;10.34;43.55;94985.91;4991550;28;20222;-58
2023/01/11 10:35:06;;;;;;;0.00;0.00;;;;;;;10.83;43.04;94976.00;4988756;28;20306;-59
2023/01/11 10:40:34;;;;;;;0.00;0.00;;;;;;;10.87;43.87;94983.09;4976960;28;20553;-59
2023/01/11 10:43:19;;;;;;;0.00;0.00;;;;;;;10.98;42.27;94982.09;4989359;28;20194;-61
2023/01/11 10:45:50;;;;;;;0.00;0.00;;;;;;;10.89;41.67;94970.50;4988983;28;20213;-59
2023/01/11 10:48:26;;;;;;;0.43;0.43;;;;;;;11.24;42.17;94957.56;4989523;28;20625;-59
2023/01/11 10:51:28;;;;;;;0.75;0.52;;;;;;;11.36;42.15;94965.22;4989091;28;20200;-59
2023/01/11 10:54:21;;;;;;;0.00;0.00;;;;;;;11.81;42.79;94964.53;4991254;28;20643;-59
2023/01/11 10:57:12;;;;;;;0.30;0.20;;;;;;;11.75;41.72;94963.75;4989028;28;20210;-60
2023/01/11 11:00:17;;;;;;;0.00;0.00;;;;;;;11.20;40.75;94972.22;4978357;28;20198;-59
2023/01/11 11:02:59;;;;;;;0.00;0.00;;;;;;;11.11;41.38;94963.28;4988924;28;20565;-60
2023/01/11 11:05:32;;;;;;;0.10;0.10;;;;;;;11.28;40.76;94954.44;4988970;28;20483;-59
2023/01/11 11:08:12;;;;;;;0.00;0.00;;;;;;;11.33;40.59;94954.44;4989377;28;20233;-61
2023/01/11 11:10:57;;;;;;;0.00;0.00;;;;;;;11.67;41.03;94960.84;4988622;28;20866;-60
2023/01/11 11:13:48;;;;;;;0.10;0.10;;;;;;;11.11;41.63;94960.66;4988086;28;20515;-60
2023/01/11 11:16:21;;;;;;;0.00;0.00;;;;;;;11.38;41.70;94957.06;4988626;28;20206;-60
2023/01/11 11:18:54;;;;;;;1.03;0.97;;;;;;;11.32;41.04;94966.75;4988527;28;20512;-59
2023/01/11 11:21:27;;;;;;;0.00;0.00;;;;;;;11.38;41.55;94970.19;4988812;28;20459;-59
2023/01/11 11:24:18;;;;;;;0.10;0.10;;;;;;;11.39;40.18;94966.50;4988732;28;20198;-60
2023/01/11 11:26:52;;;;;;;0.30;0.30;;;;;;;10.94;40.90;94973.19;4988691;28;20442;-60
2023/01/11 11:29:22;;;;;;;0.00;0.00;;;;;;;11.09;41.27;94975.84;4991586;28;20202;-58
2023/01/11 11:31:50;;;;;;;0.00;0.00;;;;;;;10.65;41.74;94977.22;4992557;28;20313;-55
2023/01/11 11:34:19;;;;;;;0.00;0.00;;;;;;;10.73;42.22;94981.19;4992820;28;20265;-59
2023/01/11 11:36:50;;;;;;;0.10;0.10;;;;;;;11.26;42.45;94975.66;4992589;28;20285;-58
2023/01/11 11:39:28;;;;;;;0.10;0.10;;;;;;;11.07;41.55;94977.97;4993030;28;20294;-58
2023/01/11 11:42:07;;;;;;;0.00;0.00;;;;;;;11.34;41.27;94975.16;4981549;28;20194;-58
2023/01/11 11:44:34;;;;;;;0.00;0.00;;;;;;;10.81;41.96;94983.31;4992390;28;20449;-59
2023/01/11 11:47:03;;;;;;;0.52;0.43;;;;;;;10.69;41.99;94970.41;4992678;28;20481;-58
2023/01/11 11:49:35;;;;;;;0.22;0.22;;;;;;;11.06;42.16;94988.69;4992316;28;20293;-58
2023/01/11 11:52:04;;;;;;;0.85;0.40;;;;;;;11.01;42.53;94986.03;4992753;28;20203;-58
2023/01/11 11:54:55;;;;;;;0.38;0.38;;;;;;;11.09;41.20;94980.31;4992084;28;20433;-59
2023/01/11 11:57:36;;;;;;;0.00;0.00;;;;;;;11.09;42.01;94983.72;4992441;28;20191;-58
2023/01/11 12:00:05;;;;;;;0.15;0.15;;;;;;;10.56;43.21;94989.22;4990680;28;20210;-58
2023/01/11 12:02:35;;;;;;;0.25;0.20;;;;;;;10.76;41.32;94984.09;4991639;28;20285;-59
2023/01/11 12:05:08;;;;;;;0.00;0.00;;;;;;;10.91;42.52;94978.91;4991860;28;20665;-59
2023/01/11 12:07:42;;;;;;;0.00;0.00;;;;;;;11.12;41.45;94992.91;4992154;28;20693;-60
2023/01/11 12:10:24;;;;;;;0.00;0.00;;;;;;;10.98;41.75;94979.47;4991580;28;20191;-59
2023/01/11 12:12:52;;;;;;;0.20;0.20;;;;;;;10.85;42.08;94982.56;4992210;28;21015;-59
2023/01/11 12:15:31;;;;;;;0.10;0.10;;;;;;;10.76;42.20;94960.50;4991822;28;21069;-59
2023/01/11 12:18:23;;;;;;;0.00;0.00;;;;;;;10.97;40.80;94992.84;4992162;28;20277;-59
2023/01/11 12:20:51;;;;;;;0.00;0.00;;;;;;;10.13;40.92;94990.19;4985300;28;20277;-53
2023/01/11 12:23:20;;;;;;;0.00;0.00;;;;;;;10.21;41.02;94988.97;4991913;28;20194;-59
2023/01/11 12:25:56;;;;;;;1.67;0.95;;;;;;;9.81;42.13;94996.44;4991492;28;20226;-59
2023/01/11 12:28:55;;;;;;;0.00;0.00;;;;;;;10.45;41.83;94998.03;4991810;28;20214;-58
2023/01/11 12:31:45;;;;;;;0.20;0.20;;;;;;;10.48;42.19;94999.34;4986382;28;20226;-59
2023/01/11 12:34:30;;;;;;;0.00;0.00;;;;;;;10.64;41.89;95004.44;4991913;28;20639;-60
2023/01/11 12:37:12;;;;;;;0.68;0.68;;;;;;;10.65;42.28;95000.00;4991906;28;20217;-60